Latest Weather Observations for Holmes Reef

IDQ60801

Issued at 7:05 am EST Saturday 29 November 2014 (issued every 30 minutes, with the page automatically refreshed every 10 minutes)

About weather observations | Map of weather stations | Latest weather observations for QLD | Other Formats
Station Details ID: 200732 Name: HOLMES REEF Lat: -16.47 Lon: 147.87 Height: 1.9 m
Data from the previous 72 hours. | See also: Recent months at Holmes Reef
Date/Time
EST
Temp
°C
App
Temp
°C
Dew
Point
Rel
Hum
%
Delta-T
°C
Wind Press
QNH
hPa
Press
MSL
hPa
Rain
since 9 am
mm
Dir
 
Spd
km/h
Gust
km/h
Spd
kts
Gust
kts
29/06:15am 26.2 - - - - ESE 30 - 16 - - 1009.9 -
29/05:15am 26.1 - - - - ESE 35 - 19 - - 1009.3 -
29/04:15am 26.4 - - - - ESE 28 - 15 - - 1008.9 -
29/03:15am 26.6 - - - - ESE 24 - 13 - - 1008.7 -
29/03:00am 26.4 - - - - ESE 28 30 15 16 1009.0 - -
29/02:30am 26.4 - - - - E 26 28 14 15 1009.2 - -
29/02:15am 26.4 - - - - ESE 28 - 15 - - 1009.0 -
29/02:00am 26.4 - - - - E 28 32 15 17 1009.4 - -
29/01:30am 26.5 - - - - ESE 30 35 16 19 1009.7 - -
29/01:15am 26.5 - - - - ESE 28 - 15 - - 1009.5 -
29/01:00am 26.5 - - - - ESE 28 32 15 17 1009.9 - -
29/12:30am 26.6 - - - - ESE 28 33 15 18 1010.3 - -
29/12:15am 26.6 - - - - ESE 30 - 16 - - 1010.2 -
29/12:00am 26.7 - - - - ESE 32 35 17 19 1010.6 - -
 
Date/Time
EST
Temp
°C
App
Temp
°C
Dew
Point
Rel
Hum
%
Delta-T
°C
Wind Press
QNH
hPa
Press
MSL
hPa
Rain
since 9 am
mm
Dir
 
Spd
km/h
Gust
km/h
Spd
kts
Gust
kts
28/11:30pm 26.7 - - - - ESE 32 35 17 19 1010.9 - -
28/11:15pm 26.8 - - - - ESE 32 - 17 - - 1010.9 -
28/11:00pm 26.7 - - - - ESE 33 39 18 21 1011.4 - -
28/10:30pm 26.8 - - - - ESE 33 37 18 20 1011.4 - -
28/10:15pm 26.8 - - - - ESE 33 - 18 - - 1011.2 -
28/10:00pm 26.9 - - - - ESE 33 35 18 19 1011.6 - -
28/09:30pm 26.8 - - - - ESE 32 37 17 20 1011.6 - -
28/09:15pm 26.8 - - - - ESE 32 - 17 - - 1011.2 -
28/09:00pm 26.8 - - - - SE 32 35 17 19 1011.5 - -
28/08:30pm 27.0 - - - - ESE 30 35 16 19 1011.4 - -
28/08:15pm 26.8 - - - - ESE 32 - 17 - - 1011.0 -
28/08:00pm 26.8 - - - - ESE 30 37 16 20 1011.2 - -
28/07:30pm 26.9 - - - - ESE 33 39 18 21 1011.0 - -
28/07:15pm 27.0 - - - - SE 32 - 17 - - 1010.6 -
28/07:00pm 26.9 - - - - SE 30 33 16 18 1010.8 - -
28/06:30pm 26.9 - - - - SE 28 33 15 18 1010.6 - -
28/06:15pm 27.0 - - - - SE 28 - 15 - - 1010.1 -
28/06:00pm 26.9 - - - - SE 28 33 15 18 1010.3 - -
28/05:30pm 27.0 - - - - SE 30 33 16 18 1010.2 - -
28/05:15pm 27.1 - - - - SE 28 - 15 - - 1009.7 -
28/05:00pm 27.0 - - - - SE 32 35 17 19 1009.9 - -
28/04:30pm 27.1 - - - - SE 28 33 15 18 1010.0 - -
28/04:15pm 27.1 - - - - SE 28 - 15 - - 1009.7 -
28/04:00pm 27.0 - - - - SE 28 32 15 17 1010.0 - -
28/03:30pm 27.1 - - - - SE 28 32 15 17 1009.9 - -
28/03:15pm 27.0 - - - - SE 28 - 15 - - 1009.6 -
28/03:00pm 27.1 - - - - SE 28 33 15 18 1009.9 - -
28/02:30pm 27.1 - - - - SE 28 32 15 17 1010.1 - -
28/02:15pm 27.0 - - - - SE 30 - 16 - - 1009.8 -
28/02:00pm 27.1 - - - - SE 28 33 15 18 1010.3 - -
28/01:30pm 27.2 - - - - SE 28 32 15 17 1010.5 - -
28/01:15pm 27.2 - - - - SE 26 - 14 - - 1010.4 -
28/01:00pm 27.0 - - - - SE 26 30 14 16 1010.8 - -
28/12:30pm 27.1 - - - - SE 26 32 14 17 1011.1 - -
28/12:15pm 27.1 - - - - SE 28 - 15 - - 1010.8 -
28/12:00pm 27.1 - - - - SE 28 32 15 17 1011.2 - -
28/11:30am 26.9 - - - - ESE 24 32 13 17 1011.5 - -
28/11:15am 26.9 - - - - ESE 20 - 11 - - 1011.4 -
28/11:00am 26.8 - - - - ESE 19 22 10 12 1011.7 - -
28/10:30am 26.7 - - - - E 22 26 12 14 1011.8 - -
28/10:15am 26.8 - - - - E 20 - 11 - - 1011.6 -
28/10:00am 26.7 - - - - ESE 22 26 12 14 1012.0 - -
28/09:30am 26.5 - - - - E 24 30 13 16 1012.0 - -
28/09:15am 26.6 - - - - E 24 - 13 - - 1011.7 -
28/09:00am 26.4 - - - - E 26 30 14 16 1011.9 - -
28/08:30am 26.5 - - - - E 30 33 16 18 1011.6 - -
28/08:15am 26.7 - - - - E 30 - 16 - - 1011.1 -
28/08:00am 26.6 - - - - E 28 32 15 17 1011.4 - -
28/07:30am 26.4 - - - - E 32 35 17 19 1011.4 - -
28/07:15am 26.0 - - - - E 32 - 17 - - 1011.2 -
28/07:00am 25.9 - - - - E 33 39 18 21 1011.4 - -
28/06:30am 25.6 - - - - E 41 44 22 24 1011.3 - -
28/06:28am 25.5 - - - - E 41 44 22 24 1011.3 - -
28/06:15am 26.2 - - - - E 32 - 17 - - 1010.8 -
28/06:00am 26.4 - - - - ESE 26 30 14 16 1010.9 - -
28/05:30am 26.4 - - - - ESE 28 32 15 17 1010.6 - -
28/05:15am 26.5 - - - - ESE 28 - 15 - - 1010.2 -
28/05:00am 26.5 - - - - ESE 28 32 15 17 1010.5 - -
28/04:30am 26.6 - - - - E 28 33 15 18 1010.2 - -
28/04:15am 26.4 - - - - E 32 - 17 - - 1009.9 -
28/03:15am 26.8 - - - - ESE 30 - 16 - - 1009.8 -
28/03:00am 26.7 - - - - ESE 30 35 16 19 1010.1 - -
28/02:30am 26.8 - - - - ESE 32 35 17 19 1010.1 - -
28/02:15am 26.7 - - - - ESE 30 - 16 - - 1009.9 -
28/02:00am 26.7 - - - - ESE 28 33 15 18 1010.2 - -
28/01:30am 26.7 - - - - ESE 28 33 15 18 1010.5 - -
28/01:15am 26.8 - - - - ESE 28 - 15 - - 1010.4 -
28/01:00am 26.7 - - - - ESE 28 32 15 17 1010.7 - -
28/12:30am 26.8 - - - - ESE 32 33 17 18 1011.0 - -
28/12:15am 26.8 - - - - ESE 32 - 17 - - 1010.8 -
28/12:00am 26.8 - - - - ESE 32 37 17 20 1011.1 - -
 
Date/Time
EST
Temp
°C
App
Temp
°C
Dew
Point
Rel
Hum
%
Delta-T
°C
Wind Press
QNH
hPa
Press
MSL
hPa
Rain
since 9 am
mm
Dir
 
Spd
km/h
Gust
km/h
Spd
kts
Gust
kts
27/11:30pm 26.7 - - - - SE 33 37 18 20 1011.2 - -
27/11:15pm 26.8 - - - - ESE 32 - 17 - - 1011.0 -
27/11:00pm 26.9 - - - - SE 32 35 17 19 1011.5 - -
27/10:30pm 26.9 - - - - ESE 32 37 17 20 1011.6 - -
27/10:15pm 27.0 - - - - ESE 33 - 18 - - 1011.4 -
27/10:00pm 27.1 - - - - ESE 32 37 17 20 1011.6 - -
27/09:30pm 27.1 - - - - ESE 33 39 18 21 1011.5 - -
27/09:15pm 27.1 - - - - SE 33 - 18 - - 1011.2 -
27/09:00pm 27.0 - - - - ESE 33 39 18 21 1011.5 - -
27/08:30pm 27.1 - - - - SE 33 37 18 20 1011.3 - -
27/08:15pm 27.1 - - - - SE 33 - 18 - - 1010.8 -
27/08:00pm 27.0 - - - - SE 32 37 17 20 1011.1 - -
27/07:30pm 27.0 - - - - SE 30 35 16 19 1010.8 - -
27/07:15pm 27.1 - - - - SE 30 - 16 - - 1010.4 -
27/06:30pm 26.9 - - - - SE 30 35 16 19 1010.3 - -
27/06:15pm 27.0 - - - - SSE 28 - 15 - - 1010.0 -
27/06:00pm 27.0 - - - - SSE 28 32 15 17 1010.2 - -
27/05:30pm 27.1 - - - - SSE 26 32 14 17 1010.1 - -
27/05:15pm 27.3 - - - - SSE 28 - 15 - - 1009.7 -
27/05:00pm 27.3 - - - - SSE 26 30 14 16 1009.9 - -
27/04:30pm 27.1 - - - - SSE 24 28 13 15 1009.7 - -
27/04:15pm 27.2 - - - - SSE 24 - 13 - - 1009.3 -
27/04:00pm 27.1 - - - - SSE 24 28 13 15 1009.6 - -
27/03:30pm 26.9 - - - - SSE 24 28 13 15 1009.4 - -
27/03:15pm 26.9 - - - - SSE 24 - 13 - - 1009.2 -
27/03:00pm 27.0 - - - - SSE 24 30 13 16 1009.6 - -
27/02:30pm 27.1 - - - - SSE 26 30 14 16 1009.9 - -
27/02:15pm 27.4 - - - - SSE 26 - 14 - - 1009.6 -
27/02:00pm 27.1 - - - - SSE 26 30 14 16 1010.1 - -
27/01:30pm 27.3 - - - - SSE 24 28 13 15 1010.4 - -
27/01:15pm 27.1 - - - - SSE 24 - 13 - - 1010.3 -
27/01:00pm 27.1 - - - - SSE 22 26 12 14 1010.9 - -
27/12:30pm 26.9 - - - - SE 26 28 14 15 1011.1 - -
27/12:15pm 26.9 - - - - SE 26 - 14 - - 1010.8 -
27/12:00pm 27.0 - - - - SE 24 30 13 16 1011.1 - -
27/11:30am 27.1 - - - - ESE 22 26 12 14 1011.4 - -
27/11:00am 27.2 - - - - ESE 22 26 12 14 1011.8 - -
27/10:30am 27.2 - - - - ESE 22 26 12 14 1012.1 - -
27/10:15am 27.2 - - - - SE 22 - 12 - - 1012.0 -
27/10:00am 27.3 - - - - ESE 22 26 12 14 1012.4 - -
27/09:30am 27.3 - - - - ESE 24 28 13 15 1012.4 - -
27/09:15am 27.1 - - - - ESE 24 - 13 - - 1012.2 -
27/09:00am 27.1 - - - - ESE 26 30 14 16 1012.4 - -
27/08:30am 27.2 - - - - ESE 26 30 14 16 1012.5 - -
27/08:15am 27.2 - - - - ESE 26 - 14 - - 1012.2 -
27/08:00am 27.1 - - - - SE 24 30 13 16 1012.5 - -
27/07:30am 27.0 - - - - SE 26 32 14 17 1012.4 - -
27/07:15am 26.8 - - - - SE 28 - 15 - - 1012.0 -
27/07:00am 27.1 - - - - SE 26 32 14 17 1012.3 - -
27/06:30am 27.1 - - - - ESE 26 30 14 16 1012.0 - -
27/06:15am 26.9 - - - - ESE 28 - 15 - - 1011.5 -
27/06:00am 26.8 - - - - ESE 26 32 14 17 1011.6 - -
27/05:30am 26.7 - - - - ESE 28 35 15 19 1011.1 - -
27/05:15am 26.6 - - - - ESE 26 - 14 - - 1010.7 -
27/05:00am 26.8 - - - - E 26 30 14 16 1010.8 - -
27/04:30am 26.6 - - - - E 28 33 15 18 1010.5 - -
27/04:15am 26.7 - - - - E 28 - 15 - - 1010.1 -
27/04:00am 26.9 - - - - E 28 32 15 17 1010.5 - -
27/03:30am 26.7 - - - - E 30 37 16 20 1010.3 - -
27/03:15am 26.9 - - - - E 30 - 16 - - 1010.0 -
27/03:00am 26.8 - - - - E 30 35 16 19 1010.3 - -
27/02:30am 26.8 - - - - E 32 37 17 20 1010.3 - -
27/02:15am 26.6 - - - - E 28 - 15 - - 1009.9 -
27/02:00am 26.5 - - - - E 32 35 17 19 1010.4 - -
27/01:30am 26.8 - - - - E 30 35 16 19 1010.3 - -
27/01:15am 26.9 - - - - E 32 - 17 - - 1010.2 -
27/01:00am 27.0 - - - - E 30 33 16 18 1010.6 - -
27/12:30am 27.0 - - - - E 28 33 15 18 1011.1 - -
27/12:15am 27.0 - - - - E 30 - 16 - - 1011.0 -
27/12:00am 27.1 - - - - E 28 33 15 18 1011.5 - -
 
Date/Time
EST
Temp
°C
App
Temp
°C
Dew
Point
Rel
Hum
%
Delta-T
°C
Wind Press
QNH
hPa
Press
MSL
hPa
Rain
since 9 am
mm
Dir
 
Spd
km/h
Gust
km/h
Spd
kts
Gust
kts
26/11:30pm 27.1 - - - - E 30 35 16 19 1011.9 - -
26/11:15pm 27.2 - - - - E 32 - 17 - - 1011.8 -
26/11:00pm 27.2 - - - - E 32 37 17 20 1012.2 - -
26/10:30pm 27.2 - - - - E 35 41 19 22 1012.1 - -
26/10:15pm 27.2 - - - - E 35 - 19 - - 1011.8 -
26/10:00pm 27.3 - - - - E 33 39 18 21 1012.1 - -
26/09:30pm 27.3 - - - - E 37 41 20 22 1012.0 - -
26/09:15pm 27.2 - - - - E 35 - 19 - - 1011.6 -
26/09:00pm 27.2 - - - - E 35 39 19 21 1011.8 - -
26/08:30pm 27.4 - - - - E 35 41 19 22 1011.6 - -
26/08:15pm 27.3 - - - - ESE 35 - 19 - - 1011.2 -
26/08:00pm 27.2 - - - - E 32 37 17 20 1011.4 - -
26/07:30pm 27.2 - - - - E 32 39 17 21 1011.1 - -
26/07:15pm 27.0 - - - - E 30 - 16 - - 1010.8 -
26/07:00pm 25.5 - - - - E 32 39 17 21 1011.2 - -
26/06:30pm 27.2 - - - - E 28 33 15 18 1010.7 - -
26/06:15pm 27.3 - - - - E 30 - 16 - - 1010.2 -
26/06:00pm 27.2 - - - - ESE 28 32 15 17 1010.3 - -
26/05:30pm 27.4 - - - - E 26 33 14 18 1010.1 - -
26/05:15pm 27.3 - - - - E 28 - 15 - - 1009.7 -
26/05:00pm 27.3 - - - - E 32 35 17 19 1009.9 - -
26/04:30pm 27.0 - - - - E 28 32 15 17 1009.7 - -
26/04:15pm 26.5 - - - - ESE 33 - 18 - - 1009.3 -
26/04:00pm 27.5 - - - - E 30 33 16 18 1009.6 - -
26/03:30pm 27.4 - - - - E 26 30 14 16 1009.7 - -
26/03:15pm 27.7 - - - - E 26 - 14 - - 1009.4 -
26/03:00pm 27.6 - - - - E 26 30 14 16 1009.8 - -
26/02:30pm 27.5 - - - - E 28 32 15 17 1009.8 - -
26/02:15pm 27.2 - - - - E 24 - 13 - - 1009.6 -
26/02:00pm 26.5 - - - - E 28 35 15 19 1010.1 - -
26/01:30pm 27.5 - - - - ESE 22 26 12 14 1010.4 - -
26/01:15pm 27.5 - - - - E 24 - 13 - - 1010.2 -
26/01:00pm 27.5 - - - - ESE 22 26 12 14 1010.7 - -
26/12:30pm 27.4 - - - - E 26 32 14 17 1010.8 - -
26/12:15pm 27.4 - - - - E 26 - 14 - - 1010.6 -
26/12:00pm 27.4 - - - - E 26 30 14 16 1011.1 - -
26/11:30am 27.4 - - - - ESE 26 32 14 17 1011.5 - -
26/11:15am 27.4 - - - - ESE 26 - 14 - - 1011.3 -
26/11:00am 27.4 - - - - E 26 30 14 16 1011.8 - -
26/10:30am 27.3 - - - - E 28 32 15 17 1011.6 - -
26/10:15am 27.3 - - - - E 26 - 14 - - 1011.5 -
26/10:00am 27.3 - - - - E 26 30 14 16 1011.9 - -
26/09:30am 27.5 - - - - E 26 30 14 16 1012.0 - -
26/09:15am 27.3 - - - - E 28 - 15 - - 1011.6 -
26/09:00am 27.2 - - - - E 28 32 15 17 1011.9 - -
26/08:30am 27.2 - - - - E 28 32 15 17 1011.6 - -
26/08:15am 27.2 - - - - E 26 - 14 - - 1011.2 -
26/08:00am 27.3 - - - - E 26 30 14 16 1011.4 - -
26/07:30am 27.1 - - - - E 26 30 14 16 1011.2 - -
26/07:15am 27.2 - - - - E 26 - 14 - - 1010.7 -

Other Formats:

Comma delimited format used in spreadsheet applications
http://www.bom.gov.au/fwo/IDQ60801/IDQ60801.94289.axf

JavaScript Object Notation format (JSON) in row-major order
http://www.bom.gov.au/fwo/IDQ60801/IDQ60801.94289.json